sensor_id;sensor_type;location;lat;lon;timestamp;temperature;humidity
15815;DHT22;8008;50.024;8.172;2023-04-10T03:00:35;7.20;95.70
15815;DHT22;8008;50.024;8.172;2023-04-10T03:03:26;7.10;95.30
15815;DHT22;8008;50.024;8.172;2023-04-10T03:05:55;6.90;95.00
15815;DHT22;8008;50.024;8.172;2023-04-10T03:08:29;6.80;95.00
15815;DHT22;8008;50.024;8.172;2023-04-10T03:10:57;6.70;95.30
15815;DHT22;8008;50.024;8.172;2023-04-10T03:13:25;6.70;95.30
15815;DHT22;8008;50.024;8.172;2023-04-10T03:15:54;6.70;95.30
15815;DHT22;8008;50.024;8.172;2023-04-10T03:18:22;6.70;95.30
15815;DHT22;8008;50.024;8.172;2023-04-10T03:20:52;6.70;95.20
15815;DHT22;8008;50.024;8.172;2023-04-10T03:23:20;6.70;95.10
15815;DHT22;8008;50.024;8.172;2023-04-10T03:25:49;6.80;95.20
15815;DHT22;8008;50.024;8.172;2023-04-10T03:28:18;6.80;95.10
15815;DHT22;8008;50.024;8.172;2023-04-10T03:30:46;6.70;94.80
15815;DHT22;8008;50.024;8.172;2023-04-10T03:33:15;6.60;94.90
15815;DHT22;8008;50.024;8.172;2023-04-10T03:35:44;6.60;95.10
15815;DHT22;8008;50.024;8.172;2023-04-10T03:38:13;6.70;95.10
15815;DHT22;8008;50.024;8.172;2023-04-10T03:40:41;6.70;95.10
15815;DHT22;8008;50.024;8.172;2023-04-10T03:43:10;6.60;95.20
15815;DHT22;8008;50.024;8.172;2023-04-10T03:45:38;6.70;95.00
15815;DHT22;8008;50.024;8.172;2023-04-10T03:48:06;6.70;94.90
15815;DHT22;8008;50.024;8.172;2023-04-10T03:50:42;6.80;94.90
15815;DHT22;8008;50.024;8.172;2023-04-10T03:53:10;6.80;94.90
15815;DHT22;8008;50.024;8.172;2023-04-10T03:55:38;6.80;94.90
15815;DHT22;8008;50.024;8.172;2023-04-10T03:58:06;6.70;95.00
15815;DHT22;8008;50.024;8.172;2023-04-10T04:00:35;6.70;95.00
15815;DHT22;8008;50.024;8.172;2023-04-10T04:03:12;6.80;95.00
15815;DHT22;8008;50.024;8.172;2023-04-10T04:06:00;6.90;95.10
15815;DHT22;8008;50.024;8.172;2023-04-10T04:08:37;6.90;95.00
15815;DHT22;8008;50.024;8.172;2023-04-10T04:11:27;7.00;94.90
15815;DHT22;8008;50.024;8.172;2023-04-10T04:14:05;6.80;94.80
15815;DHT22;8008;50.024;8.172;2023-04-10T04:16:47;6.80;95.00
15815;DHT22;8008;50.024;8.172;2023-04-10T04:19:40;6.80;94.80
15815;DHT22;8008;50.024;8.172;2023-04-10T04:22:23;6.70;94.80
15815;DHT22;8008;50.024;8.172;2023-04-10T04:25:26;6.70;94.90
15815;DHT22;8008;50.024;8.172;2023-04-10T04:28:15;6.60;95.00
15815;DHT22;8008;50.024;8.172;2023-04-10T04:31:02;6.70;95.10
15815;DHT22;8008;50.024;8.172;2023-04-10T04:33:48;6.70;95.10
15815;DHT22;8008;50.024;8.172;2023-04-10T04:36:26;6.70;95.10
15815;DHT22;8008;50.024;8.172;2023-04-10T04:39:14;6.80;95.00
15815;DHT22;8008;50.024;8.172;2023-04-10T04:42:11;6.80;94.90
15815;DHT22;8008;50.024;8.172;2023-04-10T04:45:01;6.90;95.00
15815;DHT22;8008;50.024;8.172;2023-04-10T04:47:55;6.80;94.90
15815;DHT22;8008;50.024;8.172;2023-04-10T04:50:34;6.80;95.20
15815;DHT22;8008;50.024;8.172;2023-04-10T04:53:14;6.70;95.20
15815;DHT22;8008;50.024;8.172;2023-04-10T04:56:04;6.60;95.20
15815;DHT22;8008;50.024;8.172;2023-04-10T04:58:51;6.50;95.20
15815;DHT22;8008;50.024;8.172;2023-04-10T05:01:51;6.40;95.40
15815;DHT22;8008;50.024;8.172;2023-04-10T05:04:52;6.40;95.60
15815;DHT22;8008;50.024;8.172;2023-04-10T05:07:38;6.50;95.60
15815;DHT22;8008;50.024;8.172;2023-04-10T05:10:25;6.50;95.60
15815;DHT22;8008;50.024;8.172;2023-04-10T05:13:26;6.60;95.70
15815;DHT22;8008;50.024;8.172;2023-04-10T05:16:11;6.80;96.80
15815;DHT22;8008;50.024;8.172;2023-04-10T05:18:54;6.80;97.00
15815;DHT22;8008;50.024;8.172;2023-04-10T05:21:46;6.90;97.10
15815;DHT22;8008;50.024;8.172;2023-04-10T05:24:32;7.00;96.40
15815;DHT22;8008;50.024;8.172;2023-04-10T05:27:36;7.00;96.40
15815;DHT22;8008;50.024;8.172;2023-04-10T05:30:25;7.00;96.70
15815;DHT22;8008;50.024;8.172;2023-04-10T05:33:10;7.00;97.30
15815;DHT22;8008;50.024;8.172;2023-04-10T05:35:56;7.10;97.70
15815;DHT22;8008;50.024;8.172;2023-04-10T05:38:33;7.10;98.00
15815;DHT22;8008;50.024;8.172;2023-04-10T05:41:12;7.10;98.20
15815;DHT22;8008;50.024;8.172;2023-04-10T05:44:00;7.10;98.40
15815;DHT22;8008;50.024;8.172;2023-04-10T05:46:46;7.00;98.60
15815;DHT22;8008;50.024;8.172;2023-04-10T05:49:32;7.10;98.70
15815;DHT22;8008;50.024;8.172;2023-04-10T05:52:15;7.10;98.70
15815;DHT22;8008;50.024;8.172;2023-04-10T05:55:07;7.10;98.60
15815;DHT22;8008;50.024;8.172;2023-04-10T05:57:54;7.10;98.50
15815;DHT22;8008;50.024;8.172;2023-04-10T06:00:40;7.20;98.10
15815;DHT22;8008;50.024;8.172;2023-04-10T06:03:28;7.30;98.00
15815;DHT22;8008;50.024;8.172;2023-04-10T06:06:00;7.30;98.00
15815;DHT22;8008;50.024;8.172;2023-04-10T06:08:30;7.40;97.80
15815;DHT22;8008;50.024;8.172;2023-04-10T06:10:58;7.40;97.70
15815;DHT22;8008;50.024;8.172;2023-04-10T06:13:27;7.50;97.50
15815;DHT22;8008;50.024;8.172;2023-04-10T06:15:58;7.60;97.40
15815;DHT22;8008;50.024;8.172;2023-04-10T06:18:29;7.70;96.90
15815;DHT22;8008;50.024;8.172;2023-04-10T06:20:57;7.80;97.00
15815;DHT22;8008;50.024;8.172;2023-04-10T06:23:27;7.80;97.40
15815;DHT22;8008;50.024;8.172;2023-04-10T06:25:55;7.90;97.40
15815;DHT22;8008;50.024;8.172;2023-04-10T06:28:23;8.00;97.50
15815;DHT22;8008;50.024;8.172;2023-04-10T06:30:55;8.00;97.10
15815;DHT22;8008;50.024;8.172;2023-04-10T06:33:31;8.10;96.90
15815;DHT22;8008;50.024;8.172;2023-04-10T06:36:03;8.20;96.70
15815;DHT22;8008;50.024;8.172;2023-04-10T06:38:37;8.30;96.70
15815;DHT22;8008;50.024;8.172;2023-04-10T06:41:05;8.40;96.70
15815;DHT22;8008;50.024;8.172;2023-04-10T06:43:33;8.50;96.60
15815;DHT22;8008;50.024;8.172;2023-04-10T06:46:02;8.50;96.60
15815;DHT22;8008;50.024;8.172;2023-04-10T06:48:32;8.70;96.60
15815;DHT22;8008;50.024;8.172;2023-04-10T06:51:00;8.80;96.60
15815;DHT22;8008;50.024;8.172;2023-04-10T06:53:28;8.90;96.60
15815;DHT22;8008;50.024;8.172;2023-04-10T06:55:57;9.00;96.40
15815;DHT22;8008;50.024;8.172;2023-04-10T06:58:29;9.10;96.40
15815;DHT22;8008;50.024;8.172;2023-04-10T07:00:56;9.20;96.40
15815;DHT22;8008;50.024;8.172;2023-04-10T07:03:30;9.30;95.40
15815;DHT22;8008;50.024;8.172;2023-04-10T07:05:59;9.40;95.00
15815;DHT22;8008;50.024;8.172;2023-04-10T07:08:28;9.40;95.30
15815;DHT22;8008;50.024;8.172;2023-04-10T07:10:56;9.50;95.00
15815;DHT22;8008;50.024;8.172;2023-04-10T07:13:24;9.50;94.70
15815;DHT22;8008;50.024;8.172;2023-04-10T07:15:52;9.60;94.50
15815;DHT22;8008;50.024;8.172;2023-04-10T07:18:20;9.80;94.00
15815;DHT22;8008;50.024;8.172;2023-04-10T07:20:50;9.90;93.40
15815;DHT22;8008;50.024;8.172;2023-04-10T07:23:19;10.10;92.50
15815;DHT22;8008;50.024;8.172;2023-04-10T07:25:48;10.10;91.80
15815;DHT22;8008;50.024;8.172;2023-04-10T07:28:17;10.20;91.90
15815;DHT22;8008;50.024;8.172;2023-04-10T07:30:45;10.20;92.00
15815;DHT22;8008;50.024;8.172;2023-04-10T07:33:13;10.30;91.90
15815;DHT22;8008;50.024;8.172;2023-04-10T07:35:41;10.50;91.70
15815;DHT22;8008;50.024;8.172;2023-04-10T07:38:10;10.60;91.70
15815;DHT22;8008;50.024;8.172;2023-04-10T07:40:40;10.70;90.80
15815;DHT22;8008;50.024;8.172;2023-04-10T07:43:07;10.60;90.60
15815;DHT22;8008;50.024;8.172;2023-04-10T07:45:35;10.70;90.30
15815;DHT22;8008;50.024;8.172;2023-04-10T07:48:04;10.80;90.60
15815;DHT22;8008;50.024;8.172;2023-04-10T07:50:32;10.80;90.20
15815;DHT22;8008;50.024;8.172;2023-04-10T07:53:01;10.80;89.70
15815;DHT22;8008;50.024;8.172;2023-04-10T07:55:36;10.90;89.70
15815;DHT22;8008;50.024;8.172;2023-04-10T07:58:06;11.00;90.10
15815;DHT22;8008;50.024;8.172;2023-04-10T08:00:34;11.10;89.00
15815;DHT22;8008;50.024;8.172;2023-04-10T08:03:03;11.20;87.30
15815;DHT22;8008;50.024;8.172;2023-04-10T08:05:32;11.20;88.00
15815;DHT22;8008;50.024;8.172;2023-04-10T08:08:00;11.20;88.00
15815;DHT22;8008;50.024;8.172;2023-04-10T08:10:27;11.30;86.50
15815;DHT22;8008;50.024;8.172;2023-04-10T08:12:55;11.30;85.80
15815;DHT22;8008;50.024;8.172;2023-04-10T08:15:25;11.40;85.60
15815;DHT22;8008;50.024;8.172;2023-04-10T08:17:53;11.50;85.70
15815;DHT22;8008;50.024;8.172;2023-04-10T08:20:21;11.50;85.60
15815;DHT22;8008;50.024;8.172;2023-04-10T08:22:49;11.60;85.80
15815;DHT22;8008;50.024;8.172;2023-04-10T08:25:16;11.70;85.50
15815;DHT22;8008;50.024;8.172;2023-04-10T08:27:44;11.70;85.50
15815;DHT22;8008;50.024;8.172;2023-04-10T08:30:12;11.80;84.70
15815;DHT22;8008;50.024;8.172;2023-04-10T08:32:41;11.90;84.10
15815;DHT22;8008;50.024;8.172;2023-04-10T08:35:09;12.00;84.60
15815;DHT22;8008;50.024;8.172;2023-04-10T08:37:37;12.10;83.60
15815;DHT22;8008;50.024;8.172;2023-04-10T08:40:07;12.10;83.30
15815;DHT22;8008;50.024;8.172;2023-04-10T08:42:35;12.20;83.90
15815;DHT22;8008;50.024;8.172;2023-04-10T08:45:03;12.30;83.60
15815;DHT22;8008;50.024;8.172;2023-04-10T08:47:35;12.40;83.50
15815;DHT22;8008;50.024;8.172;2023-04-10T08:50:07;12.40;83.50
15815;DHT22;8008;50.024;8.172;2023-04-10T08:52:42;12.50;82.30
15815;DHT22;8008;50.024;8.172;2023-04-10T08:55:12;12.60;82.40
15815;DHT22;8008;50.024;8.172;2023-04-10T08:57:40;12.80;82.40
15815;DHT22;8008;50.024;8.172;2023-04-10T09:00:20;12.90;82.60
15815;DHT22;8008;50.024;8.172;2023-04-10T09:02:49;13.10;80.30
15815;DHT22;8008;50.024;8.172;2023-04-10T09:05:26;13.20;81.20
15815;DHT22;8008;50.024;8.172;2023-04-10T09:07:54;13.30;80.30
15815;DHT22;8008;50.024;8.172;2023-04-10T09:10:22;13.40;79.60
15815;DHT22;8008;50.024;8.172;2023-04-10T09:12:50;13.60;79.70
15815;DHT22;8008;50.024;8.172;2023-04-10T09:15:18;13.70;79.30
15815;DHT22;8008;50.024;8.172;2023-04-10T09:17:55;13.80;79.30
15815;DHT22;8008;50.024;8.172;2023-04-10T09:20:27;13.90;77.10
15815;DHT22;8008;50.024;8.172;2023-04-10T09:22:55;13.90;74.70
15815;DHT22;8008;50.024;8.172;2023-04-10T09:25:31;13.90;74.30
15815;DHT22;8008;50.024;8.172;2023-04-10T09:28:01;13.70;75.20
15815;DHT22;8008;50.024;8.172;2023-04-10T09:30:34;13.80;75.30
15815;DHT22;8008;50.024;8.172;2023-04-10T09:33:10;13.80;75.70
15815;DHT22;8008;50.024;8.172;2023-04-10T09:35:48;13.80;75.80
15815;DHT22;8008;50.024;8.172;2023-04-10T09:38:17;13.90;74.80
15815;DHT22;8008;50.024;8.172;2023-04-10T09:40:46;13.90;75.00
15815;DHT22;8008;50.024;8.172;2023-04-10T09:43:22;13.90;74.90
15815;DHT22;8008;50.024;8.172;2023-04-10T09:45:51;14.10;74.40
15815;DHT22;8008;50.024;8.172;2023-04-10T09:48:23;14.30;74.70
15815;DHT22;8008;50.024;8.172;2023-04-10T09:50:52;14.50;73.40
15815;DHT22;8008;50.024;8.172;2023-04-10T09:53:20;14.80;73.60
15815;DHT22;8008;50.024;8.172;2023-04-10T09:55:49;15.00;72.90
15815;DHT22;8008;50.024;8.172;2023-04-10T09:58:17;15.30;72.70
15815;DHT22;8008;50.024;8.172;2023-04-10T10:00:47;15.40;71.60
15815;DHT22;8008;50.024;8.172;2023-04-10T10:03:16;15.40;70.70
15815;DHT22;8008;50.024;8.172;2023-04-10T10:05:47;15.80;71.20
15815;DHT22;8008;50.024;8.172;2023-04-10T10:08:17;16.00;68.80
15815;DHT22;8008;50.024;8.172;2023-04-10T10:10:46;16.10;69.30
15815;DHT22;8008;50.024;8.172;2023-04-10T10:13:18;16.40;68.30
15815;DHT22;8008;50.024;8.172;2023-04-10T10:15:53;16.60;68.70
15815;DHT22;8008;50.024;8.172;2023-04-10T10:18:30;16.80;68.10
15815;DHT22;8008;50.024;8.172;2023-04-10T10:20:59;16.90;66.90
15815;DHT22;8008;50.024;8.172;2023-04-10T10:23:31;17.00;66.20
15815;DHT22;8008;50.024;8.172;2023-04-10T10:26:00;17.20;66.20
15815;DHT22;8008;50.024;8.172;2023-04-10T10:28:32;17.30;65.00
15815;DHT22;8008;50.024;8.172;2023-04-10T10:31:02;17.40;65.00
15815;DHT22;8008;50.024;8.172;2023-04-10T10:33:32;17.20;61.90
15815;DHT22;8008;50.024;8.172;2023-04-10T10:36:03;16.80;61.40
15815;DHT22;8008;50.024;8.172;2023-04-10T10:38:32;16.80;63.90
15815;DHT22;8008;50.024;8.172;2023-04-10T10:41:08;16.90;63.70
15815;DHT22;8008;50.024;8.172;2023-04-10T10:43:44;17.30;64.90
15815;DHT22;8008;50.024;8.172;2023-04-10T10:46:20;17.60;64.00
15815;DHT22;8008;50.024;8.172;2023-04-10T10:48:57;17.90;62.20
15815;DHT22;8008;50.024;8.172;2023-04-10T10:51:44;18.10;62.60
15815;DHT22;8008;50.024;8.172;2023-04-10T10:54:31;18.20;61.80
15815;DHT22;8008;50.024;8.172;2023-04-10T10:57:01;18.40;61.30
15815;DHT22;8008;50.024;8.172;2023-04-10T10:59:53;18.50;59.90
15815;DHT22;8008;50.024;8.172;2023-04-10T11:02:24;18.60;60.80
15815;DHT22;8008;50.024;8.172;2023-04-10T11:04:52;18.50;61.10
15815;DHT22;8008;50.024;8.172;2023-04-10T11:07:20;18.60;61.60
15815;DHT22;8008;50.024;8.172;2023-04-10T11:09:51;18.60;60.60
15815;DHT22;8008;50.024;8.172;2023-04-10T11:12:21;18.70;61.10
15815;DHT22;8008;50.024;8.172;2023-04-10T11:14:57;18.80;60.80
15815;DHT22;8008;50.024;8.172;2023-04-10T11:17:47;19.10;60.80
15815;DHT22;8008;50.024;8.172;2023-04-10T11:20:16;19.20;61.10
15815;DHT22;8008;50.024;8.172;2023-04-10T11:23:16;19.10;58.20
15815;DHT22;8008;50.024;8.172;2023-04-10T11:25:48;18.70;55.90
15815;DHT22;8008;50.024;8.172;2023-04-10T11:28:35;18.30;55.10
15815;DHT22;8008;50.024;8.172;2023-04-10T11:31:17;18.20;55.50
15815;DHT22;8008;50.024;8.172;2023-04-10T11:33:46;18.30;55.90
15815;DHT22;8008;50.024;8.172;2023-04-10T11:36:14;18.50;55.40
15815;DHT22;8008;50.024;8.172;2023-04-10T11:38:54;18.50;55.60
15815;DHT22;8008;50.024;8.172;2023-04-10T11:41:27;18.90;54.60
15815;DHT22;8008;50.024;8.172;2023-04-10T11:43:57;19.20;54.90
15815;DHT22;8008;50.024;8.172;2023-04-10T11:46:24;19.40;54.70
15815;DHT22;8008;50.024;8.172;2023-04-10T11:48:54;19.30;53.60
15815;DHT22;8008;50.024;8.172;2023-04-10T11:51:22;18.80;53.70
15815;DHT22;8008;50.024;8.172;2023-04-10T11:54:03;18.50;53.60
15815;DHT22;8008;50.024;8.172;2023-04-10T11:56:33;18.60;54.50
15815;DHT22;8008;50.024;8.172;2023-04-10T11:59:01;18.80;54.60
15815;DHT22;8008;50.024;8.172;2023-04-10T12:01:33;18.90;54.50
15815;DHT22;8008;50.024;8.172;2023-04-10T12:04:01;19.00;55.30
15815;DHT22;8008;50.024;8.172;2023-04-10T12:06:29;19.20;54.70
15815;DHT22;8008;50.024;8.172;2023-04-10T12:08:58;19.10;55.40
15815;DHT22;8008;50.024;8.172;2023-04-10T12:11:25;19.30;54.60
15815;DHT22;8008;50.024;8.172;2023-04-10T12:13:57;19.60;55.50
15815;DHT22;8008;50.024;8.172;2023-04-10T12:16:25;19.70;53.90
15815;DHT22;8008;50.024;8.172;2023-04-10T12:18:53;19.90;53.70
15815;DHT22;8008;50.024;8.172;2023-04-10T12:21:22;20.20;53.80
15815;DHT22;8008;50.024;8.172;2023-04-10T12:23:49;20.40;53.20
15815;DHT22;8008;50.024;8.172;2023-04-10T12:26:19;19.90;51.50
15815;DHT22;8008;50.024;8.172;2023-04-10T12:28:51;20.10;52.90
15815;DHT22;8008;50.024;8.172;2023-04-10T12:31:27;19.80;53.00
15815;DHT22;8008;50.024;8.172;2023-04-10T12:33:55;19.40;53.50
15815;DHT22;8008;50.024;8.172;2023-04-10T12:36:25;19.60;54.50
15815;DHT22;8008;50.024;8.172;2023-04-10T12:38:55;19.70;53.30
15815;DHT22;8008;50.024;8.172;2023-04-10T12:41:25;19.40;52.00
15815;DHT22;8008;50.024;8.172;2023-04-10T12:44:06;19.10;50.00
15815;DHT22;8008;50.024;8.172;2023-04-10T12:46:36;18.70;51.30
15815;DHT22;8008;50.024;8.172;2023-04-10T12:49:11;18.70;52.60
15815;DHT22;8008;50.024;8.172;2023-04-10T12:51:44;19.00;53.30
15815;DHT22;8008;50.024;8.172;2023-04-10T12:54:26;19.20;53.20
15815;DHT22;8008;50.024;8.172;2023-04-10T12:56:55;19.30;53.30
15815;DHT22;8008;50.024;8.172;2023-04-10T12:59:23;19.40;53.10
15815;DHT22;8008;50.024;8.172;2023-04-10T13:01:53;19.60;52.70
15815;DHT22;8008;50.024;8.172;2023-04-10T13:04:22;19.60;52.40
15815;DHT22;8008;50.024;8.172;2023-04-10T13:06:50;19.50;51.00
15815;DHT22;8008;50.024;8.172;2023-04-10T13:09:19;19.40;51.80
15815;DHT22;8008;50.024;8.172;2023-04-10T13:11:47;19.50;51.20
15815;DHT22;8008;50.024;8.172;2023-04-10T13:14:17;19.10;50.30
15815;DHT22;8008;50.024;8.172;2023-04-10T13:16:45;18.80;50.50
15815;DHT22;8008;50.024;8.172;2023-04-10T13:19:14;18.80;51.70
15815;DHT22;8008;50.024;8.172;2023-04-10T13:21:42;19.00;51.30
15815;DHT22;8008;50.024;8.172;2023-04-10T13:24:10;18.80;50.20
15815;DHT22;8008;50.024;8.172;2023-04-10T13:26:41;18.60;50.50
15815;DHT22;8008;50.024;8.172;2023-04-10T13:29:09;18.70;51.50
15815;DHT22;8008;50.024;8.172;2023-04-10T13:31:37;18.90;51.90
15815;DHT22;8008;50.024;8.172;2023-04-10T13:34:05;19.20;52.70
15815;DHT22;8008;50.024;8.172;2023-04-10T13:36:35;19.40;52.00
15815;DHT22;8008;50.024;8.172;2023-04-10T13:39:03;19.60;52.30
15815;DHT22;8008;50.024;8.172;2023-04-10T13:41:31;19.90;52.50
15815;DHT22;8008;50.024;8.172;2023-04-10T13:43:59;20.30;51.70
15815;DHT22;8008;50.024;8.172;2023-04-10T13:46:27;21.10;51.10
15815;DHT22;8008;50.024;8.172;2023-04-10T13:48:55;21.80;51.30
15815;DHT22;8008;50.024;8.172;2023-04-10T13:51:24;22.50;49.90
15815;DHT22;8008;50.024;8.172;2023-04-10T13:53:53;22.70;49.10
15815;DHT22;8008;50.024;8.172;2023-04-10T13:56:21;22.50;47.30
15815;DHT22;8008;50.024;8.172;2023-04-10T13:58:49;21.90;46.70
15815;DHT22;8008;50.024;8.172;2023-04-10T14:01:17;21.50;46.90
15815;DHT22;8008;50.024;8.172;2023-04-10T14:03:45;20.80;47.10
15815;DHT22;8008;50.024;8.172;2023-04-10T14:06:13;20.60;47.40
15815;DHT22;8008;50.024;8.172;2023-04-10T14:08:41;20.40;48.10
15815;DHT22;8008;50.024;8.172;2023-04-10T14:11:10;20.80;47.90
15815;DHT22;8008;50.024;8.172;2023-04-10T14:13:38;21.20;47.90
15815;DHT22;8008;50.024;8.172;2023-04-10T14:16:07;21.10;47.50
15815;DHT22;8008;50.024;8.172;2023-04-10T14:18:35;21.70;48.70
15815;DHT22;8008;50.024;8.172;2023-04-10T14:21:03;21.70;48.30
15815;DHT22;8008;50.024;8.172;2023-04-10T14:23:31;21.10;47.80
15815;DHT22;8008;50.024;8.172;2023-04-10T14:25:59;20.90;47.80
15815;DHT22;8008;50.024;8.172;2023-04-10T14:28:29;20.90;49.10
15815;DHT22;8008;50.024;8.172;2023-04-10T14:30:57;20.60;47.90
15815;DHT22;8008;50.024;8.172;2023-04-10T14:33:25;20.40;48.00
15815;DHT22;8008;50.024;8.172;2023-04-10T14:35:53;20.40;48.30
15815;DHT22;8008;50.024;8.172;2023-04-10T14:38:21;20.40;48.40
15815;DHT22;8008;50.024;8.172;2023-04-10T14:40:49;20.50;48.40
15815;DHT22;8008;50.024;8.172;2023-04-10T14:43:17;20.50;48.80
15815;DHT22;8008;50.024;8.172;2023-04-10T14:45:46;20.50;49.00
15815;DHT22;8008;50.024;8.172;2023-04-10T14:48:14;20.40;48.10
15815;DHT22;8008;50.024;8.172;2023-04-10T14:50:45;20.00;48.00
15815;DHT22;8008;50.024;8.172;2023-04-10T14:53:13;19.60;48.50
15815;DHT22;8008;50.024;8.172;2023-04-10T14:55:42;19.50;49.10
15815;DHT22;8008;50.024;8.172;2023-04-10T14:58:10;19.40;48.70
15815;DHT22;8008;50.024;8.172;2023-04-10T15:00:38;19.30;48.90
15815;DHT22;8008;50.024;8.172;2023-04-10T15:03:07;19.30;49.10
15815;DHT22;8008;50.024;8.172;2023-04-10T15:05:36;19.20;49.40
15815;DHT22;8008;50.024;8.172;2023-04-10T15:08:03;19.30;50.30
15815;DHT22;8008;50.024;8.172;2023-04-10T15:10:31;19.40;50.60
15815;DHT22;8008;50.024;8.172;2023-04-10T15:12:59;19.50;50.30
15815;DHT22;8008;50.024;8.172;2023-04-10T15:15:27;19.40;49.90
15815;DHT22;8008;50.024;8.172;2023-04-10T15:17:55;19.40;50.40
15815;DHT22;8008;50.024;8.172;2023-04-10T15:20:25;19.30;50.30
15815;DHT22;8008;50.024;8.172;2023-04-10T15:22:53;19.30;50.50
15815;DHT22;8008;50.024;8.172;2023-04-10T15:25:20;19.20;50.40
15815;DHT22;8008;50.024;8.172;2023-04-10T15:27:48;19.30;51.30
15815;DHT22;8008;50.024;8.172;2023-04-10T15:30:16;19.30;50.60
15815;DHT22;8008;50.024;8.172;2023-04-10T15:32:44;19.20;50.20
15815;DHT22;8008;50.024;8.172;2023-04-10T15:35:12;19.10;49.90
15815;DHT22;8008;50.024;8.172;2023-04-10T15:37:42;19.00;50.20
15815;DHT22;8008;50.024;8.172;2023-04-10T15:40:10;18.90;50.80
15815;DHT22;8008;50.024;8.172;2023-04-10T15:42:38;18.90;51.20
15815;DHT22;8008;50.024;8.172;2023-04-10T15:45:06;19.00;51.40
15815;DHT22;8008;50.024;8.172;2023-04-10T15:47:34;19.10;51.50
15815;DHT22;8008;50.024;8.172;2023-04-10T15:50:02;19.00;51.30
15815;DHT22;8008;50.024;8.172;2023-04-10T15:52:30;18.90;51.70
15815;DHT22;8008;50.024;8.172;2023-04-10T15:55:00;18.90;52.10
15815;DHT22;8008;50.024;8.172;2023-04-10T15:57:28;18.80;51.60
15815;DHT22;8008;50.024;8.172;2023-04-10T15:59:56;18.70;51.60
15815;DHT22;8008;50.024;8.172;2023-04-10T16:02:26;18.60;52.30
15815;DHT22;8008;50.024;8.172;2023-04-10T16:04:54;18.40;51.30
15815;DHT22;8008;50.024;8.172;2023-04-10T16:07:22;18.40;52.00
15815;DHT22;8008;50.024;8.172;2023-04-10T16:09:50;18.30;51.90
15815;DHT22;8008;50.024;8.172;2023-04-10T16:12:22;18.20;51.70
15815;DHT22;8008;50.024;8.172;2023-04-10T16:14:49;18.20;52.00
15815;DHT22;8008;50.024;8.172;2023-04-10T16:17:17;18.10;51.40
15815;DHT22;8008;50.024;8.172;2023-04-10T16:19:45;18.00;51.20
15815;DHT22;8008;50.024;8.172;2023-04-10T16:22:13;18.00;51.30
15815;DHT22;8008;50.024;8.172;2023-04-10T16:24:41;17.90;51.10
15815;DHT22;8008;50.024;8.172;2023-04-10T16:27:09;17.80;50.70
15815;DHT22;8008;50.024;8.172;2023-04-10T16:29:39;17.80;51.40
15815;DHT22;8008;50.024;8.172;2023-04-10T16:32:07;17.80;51.00
15815;DHT22;8008;50.024;8.172;2023-04-10T16:34:35;17.70;50.80
15815;DHT22;8008;50.024;8.172;2023-04-10T16:37:03;17.70;50.90
15815;DHT22;8008;50.024;8.172;2023-04-10T16:39:31;17.60;51.10
15815;DHT22;8008;50.024;8.172;2023-04-10T16:41:58;17.60;51.00
15815;DHT22;8008;50.024;8.172;2023-04-10T16:44:26;17.60;51.10
15815;DHT22;8008;50.024;8.172;2023-04-10T16:46:56;17.60;51.30
15815;DHT22;8008;50.024;8.172;2023-04-10T16:49:24;17.50;51.50
15815;DHT22;8008;50.024;8.172;2023-04-10T16:51:52;17.50;51.80
15815;DHT22;8008;50.024;8.172;2023-04-10T16:54:20;17.50;51.90
15815;DHT22;8008;50.024;8.172;2023-04-10T16:56:48;17.40;52.40
15815;DHT22;8008;50.024;8.172;2023-04-10T16:59:15;17.40;52.40
15815;DHT22;8008;50.024;8.172;2023-04-10T17:01:43;17.40;52.00
15815;DHT22;8008;50.024;8.172;2023-04-10T17:04:13;17.30;52.30
15815;DHT22;8008;50.024;8.172;2023-04-10T17:06:42;17.30;52.30
15815;DHT22;8008;50.024;8.172;2023-04-10T17:09:10;17.30;52.70
15815;DHT22;8008;50.024;8.172;2023-04-10T17:11:38;17.30;52.90
15815;DHT22;8008;50.024;8.172;2023-04-10T17:14:06;17.30;52.80
15815;DHT22;8008;50.024;8.172;2023-04-10T17:16:35;17.20;53.20
15815;DHT22;8008;50.024;8.172;2023-04-10T17:19:03;17.20;53.30
15815;DHT22;8008;50.024;8.172;2023-04-10T17:21:32;17.20;53.50
15815;DHT22;8008;50.024;8.172;2023-04-10T17:24:01;17.10;53.70
15815;DHT22;8008;50.024;8.172;2023-04-10T17:26:29;17.10;54.10
15815;DHT22;8008;50.024;8.172;2023-04-10T17:28:57;17.00;54.30
15815;DHT22;8008;50.024;8.172;2023-04-10T17:31:25;16.90;54.40
15815;DHT22;8008;50.024;8.172;2023-04-10T17:33:53;16.90;55.00
15815;DHT22;8008;50.024;8.172;2023-04-10T17:36:21;16.90;54.60
15815;DHT22;8008;50.024;8.172;2023-04-10T17:38:51;16.80;54.80
15815;DHT22;8008;50.024;8.172;2023-04-10T17:41:20;16.80;55.10
15815;DHT22;8008;50.024;8.172;2023-04-10T17:43:48;16.70;54.90
15815;DHT22;8008;50.024;8.172;2023-04-10T17:46:16;16.70;54.90
15815;DHT22;8008;50.024;8.172;2023-04-10T17:48:44;16.70;55.10
15815;DHT22;8008;50.024;8.172;2023-04-10T17:51:12;16.60;55.60
15815;DHT22;8008;50.024;8.172;2023-04-10T17:53:40;16.60;55.50
15815;DHT22;8008;50.024;8.172;2023-04-10T17:56:17;16.50;55.50
15815;DHT22;8008;50.024;8.172;2023-04-10T17:58:46;16.50;55.70
15815;DHT22;8008;50.024;8.172;2023-04-10T18:01:20;16.50;55.90
15815;DHT22;8008;50.024;8.172;2023-04-10T18:03:48;16.20;66.70
15815;DHT22;8008;50.024;8.172;2023-04-10T18:06:16;15.90;65.60
15815;DHT22;8008;50.024;8.172;2023-04-10T18:08:44;15.70;66.60
15815;DHT22;8008;50.024;8.172;2023-04-10T18:11:12;15.70;65.90
15815;DHT22;8008;50.024;8.172;2023-04-10T18:13:42;15.50;67.00
15815;DHT22;8008;50.024;8.172;2023-04-10T18:16:09;15.50;65.80
15815;DHT22;8008;50.024;8.172;2023-04-10T18:18:37;15.50;64.30
15815;DHT22;8008;50.024;8.172;2023-04-10T18:21:07;15.60;63.20
15815;DHT22;8008;50.024;8.172;2023-04-10T18:23:36;15.70;62.50
15815;DHT22;8008;50.024;8.172;2023-04-10T18:26:05;15.70;61.70
15815;DHT22;8008;50.024;8.172;2023-04-10T18:28:33;15.80;61.70
15815;DHT22;8008;50.024;8.172;2023-04-10T18:31:03;15.80;62.80
15815;DHT22;8008;50.024;8.172;2023-04-10T18:33:32;15.80;62.70
15815;DHT22;8008;50.024;8.172;2023-04-10T18:36:00;15.80;61.80
15815;DHT22;8008;50.024;8.172;2023-04-10T18:38:29;15.80;60.40
15815;DHT22;8008;50.024;8.172;2023-04-10T18:40:58;15.80;60.40
15815;DHT22;8008;50.024;8.172;2023-04-10T18:43:27;15.80;61.50
15815;DHT22;8008;50.024;8.172;2023-04-10T18:45:56;15.80;61.50
15815;DHT22;8008;50.024;8.172;2023-04-10T18:48:25;15.80;61.60
15815;DHT22;8008;50.024;8.172;2023-04-10T18:50:53;15.80;62.20
15815;DHT22;8008;50.024;8.172;2023-04-10T18:53:21;15.80;61.80
15815;DHT22;8008;50.024;8.172;2023-04-10T18:55:50;15.80;61.50
15815;DHT22;8008;50.024;8.172;2023-04-10T18:58:18;15.80;61.80
15815;DHT22;8008;50.024;8.172;2023-04-10T19:00:55;15.80;61.40
15815;DHT22;8008;50.024;8.172;2023-04-10T19:03:25;15.80;61.30
15815;DHT22;8008;50.024;8.172;2023-04-10T19:05:55;15.90;61.00
15815;DHT22;8008;50.024;8.172;2023-04-10T19:08:24;15.90;61.20
15815;DHT22;8008;50.024;8.172;2023-04-10T19:10:52;16.00;62.30
15815;DHT22;8008;50.024;8.172;2023-04-10T19:13:21;15.90;64.70
15815;DHT22;8008;50.024;8.172;2023-04-10T19:15:50;15.90;67.70
15815;DHT22;8008;50.024;8.172;2023-04-10T19:18:25;15.80;67.80